createdAt,value
2022-11-17T00:03:09.272Z,9.07
2022-11-17T00:08:11.792Z,8.48
2022-11-17T00:13:32.250Z,13.47
2022-11-17T00:18:53.700Z,6.95
2022-11-17T00:23:56.341Z,5.63
2022-11-17T00:28:59.333Z,9.30
2022-11-17T00:34:05.821Z,8.27
2022-11-17T00:39:09.051Z,6.47
2022-11-17T00:44:11.751Z,7.22
2022-11-17T00:49:15.716Z,6.13
2022-11-17T00:54:18.314Z,8.50
2022-11-17T00:59:20.819Z,9.33
2022-11-17T01:04:24.583Z,7.25
2022-11-17T01:09:26.987Z,7.55
2022-11-17T01:14:30.262Z,10.10
2022-11-17T01:19:34.025Z,10.65
2022-11-17T01:24:36.409Z,11.77
2022-11-17T01:29:38.781Z,11.75
2022-11-17T01:34:42.581Z,10.32
2022-11-17T01:39:44.997Z,8.57
2022-11-17T01:44:55.677Z,11.07
2022-11-17T01:50:00.779Z,10.40
2022-11-17T01:55:03.765Z,12.82
2022-11-17T02:00:07.194Z,13.55
2022-11-17T02:05:14.545Z,15.93
2022-11-17T02:10:17.074Z,11.63
2022-11-17T02:15:19.575Z,12.80
2022-11-17T02:20:25.661Z,12.38
2022-11-17T02:25:36.240Z,13.07
2022-11-17T02:30:46.368Z,12.18
2022-11-17T02:35:52.029Z,15.70
2022-11-17T02:40:58.795Z,12.82
2022-11-17T02:46:04.057Z,11.00
2022-11-17T02:51:07.619Z,10.63
2022-11-17T02:56:09.999Z,9.40
2022-11-17T03:01:24.589Z,12.48
2022-11-17T03:06:30.739Z,12.63
2022-11-17T03:11:37.194Z,9.30
2022-11-17T03:16:46.409Z,11.50
2022-11-17T03:21:50.838Z,9.77
2022-11-17T03:26:55.406Z,7.82
2022-11-17T03:32:01.241Z,7.90
2022-11-17T03:37:05.869Z,10.10
2022-11-17T03:42:10.997Z,10.18
2022-11-17T03:47:16.652Z,12.23
2022-11-17T03:52:19.688Z,12.07
2022-11-17T03:57:27.025Z,8.88
2022-11-17T04:02:30.862Z,9.07
2022-11-17T04:07:33.470Z,12.57
2022-11-17T04:12:53.273Z,9.20
2022-11-17T04:17:57.065Z,7.97
2022-11-17T04:23:07.901Z,11.38
2022-11-17T04:28:27.867Z,10.32
2022-11-17T04:33:31.733Z,14.25
2022-11-17T04:38:34.321Z,16.10
2022-11-17T04:43:38.192Z,16.63
2022-11-17T04:48:42.017Z,14.77
2022-11-17T04:53:44.528Z,14.77
2022-11-17T04:58:47.161Z,13.70
2022-11-17T05:03:51.982Z,14.00
2022-11-17T05:08:55.701Z,12.75
2022-11-17T05:13:58.520Z,14.65
2022-11-17T05:19:02.747Z,13.77
2022-11-17T05:24:05.789Z,14.27
2022-11-17T05:29:08.825Z,14.13
2022-11-17T05:34:13.390Z,17.90
2022-11-17T05:39:16.311Z,14.68
2022-11-17T05:44:18.748Z,11.35
2022-11-17T05:49:22.585Z,13.15
2022-11-17T05:54:26.822Z,11.18
2022-11-17T05:59:31.710Z,10.65
2022-11-17T06:04:35.596Z,10.20
2022-11-17T06:09:40.199Z,9.77
2022-11-17T06:14:42.614Z,11.18
2022-11-17T06:19:49.095Z,10.20
2022-11-17T06:24:51.635Z,10.27
2022-11-17T06:29:54.607Z,9.40
2022-11-17T06:34:58.739Z,9.15
2022-11-17T06:40:01.131Z,8.07
2022-11-17T06:45:03.605Z,9.32
2022-11-17T06:50:08.350Z,8.93
2022-11-17T06:55:10.993Z,8.73
2022-11-17T07:00:14.334Z,8.97
2022-11-17T07:05:18.293Z,10.27
2022-11-17T07:10:20.823Z,9.02
2022-11-17T07:15:23.408Z,11.00
2022-11-17T07:20:27.219Z,9.73
2022-11-17T07:25:29.636Z,7.30
2022-11-17T07:30:32.161Z,6.22
2022-11-17T07:35:36.430Z,4.20
2022-11-17T07:40:38.862Z,5.10
2022-11-17T07:45:41.347Z,3.67
2022-11-17T07:50:45.087Z,4.80
2022-11-17T07:55:47.557Z,5.68
2022-11-17T08:00:50.059Z,6.35
2022-11-17T08:05:53.901Z,6.20
2022-11-17T08:10:56.344Z,5.68
2022-11-17T08:15:59.007Z,5.63
2022-11-17T08:21:03.797Z,10.47
2022-11-17T08:26:07.279Z,7.75
2022-11-17T08:36:13.230Z,7.57
2022-11-17T08:41:15.704Z,8.80
2022-11-17T08:46:18.137Z,8.60
2022-11-17T08:51:21.902Z,8.55
2022-11-17T08:56:24.293Z,8.13
2022-11-17T09:01:27.204Z,7.13
2022-11-17T09:06:31.189Z,6.50
2022-11-17T09:11:33.609Z,5.45
2022-11-17T09:16:36.064Z,7.93
2022-11-17T09:21:39.908Z,4.85
2022-11-17T09:26:43.020Z,6.43
2022-11-17T09:31:45.511Z,5.65
2022-11-17T09:36:49.524Z,2.78
2022-11-17T09:41:52.845Z,4.13
2022-11-17T09:47:03.436Z,4.00
2022-11-17T09:52:13.234Z,6.63
2022-11-17T09:57:20.943Z,7.18
2022-11-17T10:02:23.599Z,5.32
2022-11-17T10:07:27.622Z,6.40
2022-11-17T10:12:34.367Z,3.95
2022-11-17T10:17:39.364Z,8.10
2022-11-17T10:22:43.503Z,6.45
2022-11-17T10:27:50.466Z,3.92
2022-11-17T10:32:53.530Z,4.55
2022-11-17T10:37:58.633Z,4.15
2022-11-17T10:43:03.121Z,2.78
2022-11-17T10:48:10.642Z,5.03
2022-11-17T10:53:22.163Z,2.72
2022-11-17T10:58:26.332Z,3.08
2022-11-17T11:03:29.921Z,3.78
2022-11-17T11:08:37.591Z,2.65
2022-11-17T11:13:43.692Z,6.32
2022-11-17T11:18:46.291Z,2.60
2022-11-17T11:23:53.559Z,8.90
2022-11-17T11:29:00.999Z,4.22
2022-11-17T11:34:07.677Z,2.80
2022-11-17T11:39:20.501Z,4.43
2022-11-17T11:44:39.021Z,4.60
2022-11-17T11:49:42.687Z,5.00
2022-11-17T11:54:51.030Z,3.80
2022-11-17T12:00:02.442Z,6.40
2022-11-17T12:05:14.192Z,1.73
2022-11-17T12:10:21.503Z,4.32
2022-11-17T12:15:36.987Z,2.22
2022-11-17T12:20:49.838Z,1.52
2022-11-17T12:25:55.285Z,9.60
2022-11-17T12:30:58.768Z,2.40
2022-11-17T12:36:30.132Z,2.08
2022-11-17T12:41:54.760Z,2.97
2022-11-17T12:47:02.614Z,4.07
2022-11-17T12:52:07.624Z,1.33
2022-11-17T12:57:12.240Z,1.77
2022-11-17T13:02:21.855Z,5.40
2022-11-17T13:07:25.489Z,2.55
2022-11-17T13:12:28.606Z,3.60
2022-11-17T13:17:34.075Z,2.92
2022-11-17T13:22:41.817Z,4.88
2022-11-17T13:27:49.408Z,2.53
2022-11-17T13:32:59.318Z,4.03
2022-11-17T13:38:02.849Z,2.80
2022-11-17T13:43:05.818Z,2.92
2022-11-17T13:48:30.693Z,3.95
2022-11-17T13:53:34.190Z,2.80
2022-11-17T13:58:39.233Z,4.57
2022-11-17T14:03:44.394Z,3.33
2022-11-17T14:09:01.686Z,1.42
2022-11-17T14:14:13.020Z,3.25
2022-11-17T14:19:27.478Z,2.50
2022-11-17T14:24:30.087Z,2.13
2022-11-17T14:29:32.486Z,3.07
2022-11-17T14:34:36.174Z,4.47
2022-11-17T14:39:38.600Z,5.20
2022-11-17T14:44:40.985Z,5.10
2022-11-17T14:49:44.699Z,4.05
2022-11-17T14:54:47.166Z,5.10
2022-11-17T14:59:49.576Z,4.55
2022-11-17T15:04:53.821Z,3.97
2022-11-17T15:09:57.226Z,5.55
2022-11-17T15:14:59.627Z,6.10
2022-11-17T15:20:03.648Z,5.15
2022-11-17T15:25:06.565Z,4.30
2022-11-17T15:30:09.416Z,5.43
2022-11-17T15:35:13.124Z,5.47
2022-11-17T15:40:19.383Z,4.70
2022-11-17T15:45:23.234Z,4.60
2022-11-17T15:50:26.980Z,1.70
2022-11-17T15:55:29.328Z,3.17
2022-11-17T16:00:33.820Z,1.73
2022-11-17T16:05:37.661Z,5.78
2022-11-17T16:10:40.045Z,3.47
2022-11-17T16:15:42.426Z,5.38
2022-11-17T16:20:46.187Z,3.60
2022-11-17T16:25:49.283Z,10.85
2022-11-17T16:30:51.677Z,5.95
2022-11-17T16:35:55.405Z,10.75
2022-11-17T16:41:00.407Z,9.77
2022-11-17T16:46:14.988Z,4.13
2022-11-17T16:51:18.997Z,6.72
2022-11-17T16:56:21.506Z,4.18
2022-11-17T17:01:26.046Z,4.23
2022-11-17T17:06:29.839Z,2.53
2022-11-17T17:11:32.820Z,3.70
2022-11-17T17:16:36.042Z,4.13
2022-11-17T17:21:40.700Z,5.85
2022-11-17T17:26:43.127Z,4.53
2022-11-17T17:31:45.581Z,4.97
2022-11-17T17:36:49.272Z,12.63
2022-11-17T17:41:51.778Z,6.10
2022-11-17T17:46:54.329Z,13.20
2022-11-17T17:51:58.057Z,5.83
2022-11-17T17:57:00.466Z,8.70
2022-11-17T18:02:02.857Z,6.22
2022-11-17T18:07:06.655Z,4.32
2022-11-17T18:12:09.439Z,6.25
2022-11-17T18:17:11.959Z,3.93
2022-11-17T18:22:15.732Z,3.30
2022-11-17T18:27:18.138Z,5.35
2022-11-17T18:32:21.560Z,4.22
2022-11-17T18:42:27.673Z,4.85
2022-11-17T18:47:30.134Z,4.63
2022-11-17T18:52:32.767Z,4.63
2022-11-17T18:57:39.545Z,5.87
2022-11-17T19:02:44.590Z,2.78
2022-11-17T19:07:47.100Z,4.20
2022-11-17T19:12:51.233Z,4.72
2022-11-17T19:17:53.735Z,5.55
2022-11-17T19:22:56.193Z,2.78
2022-11-17T19:28:00.018Z,3.10
2022-11-17T19:33:02.733Z,3.00
2022-11-17T19:38:05.289Z,6.53
2022-11-17T19:43:09.415Z,4.67
2022-11-17T19:48:12.003Z,6.38
2022-11-17T19:53:14.454Z,6.77
2022-11-17T19:58:18.397Z,3.53
2022-11-17T20:03:21.373Z,3.35
2022-11-17T20:08:23.867Z,4.15
2022-11-17T20:13:27.688Z,7.85
2022-11-17T20:18:31.775Z,6.95
2022-11-17T20:23:34.827Z,7.25
2022-11-17T20:28:38.746Z,5.15
2022-11-17T20:33:41.919Z,5.20
2022-11-17T20:38:44.495Z,5.85
2022-11-17T20:43:49.307Z,11.10
2022-11-17T20:48:51.815Z,6.13
2022-11-17T20:53:54.369Z,5.40
2022-11-17T20:58:58.228Z,7.28
2022-11-17T21:04:00.652Z,4.15
2022-11-17T21:09:03.154Z,6.97
2022-11-17T21:14:08.226Z,8.65
2022-11-17T21:19:10.734Z,9.82
2022-11-17T21:24:13.353Z,6.57
2022-11-17T21:29:17.146Z,9.83
2022-11-17T21:34:19.656Z,7.80
2022-11-17T21:39:22.354Z,9.02
2022-11-17T21:44:26.182Z,9.33
2022-11-17T21:49:28.580Z,6.03
2022-11-17T21:54:30.986Z,8.85
2022-11-17T21:59:35.822Z,10.60
2022-11-17T22:04:38.322Z,14.23
2022-11-17T22:09:40.750Z,8.70
2022-11-17T22:14:44.546Z,10.77
2022-11-17T22:19:47.061Z,10.43
2022-11-17T22:24:50.017Z,8.98
2022-11-17T22:29:53.943Z,8.15
2022-11-17T22:34:56.316Z,10.90
2022-11-17T22:39:58.735Z,9.65
2022-11-17T22:45:02.588Z,10.48
2022-11-17T22:50:05.319Z,12.45
2022-11-17T22:55:08.056Z,9.23
2022-11-17T23:00:13.124Z,9.80
2022-11-17T23:05:15.670Z,10.65
2022-11-17T23:10:18.505Z,7.70
2022-11-17T23:15:22.593Z,8.65
2022-11-17T23:20:25.088Z,8.65
2022-11-17T23:25:28.573Z,14.25
2022-11-17T23:35:35.468Z,7.90
2022-11-17T23:40:38.053Z,7.40
2022-11-17T23:45:40.438Z,9.80
2022-11-17T23:50:44.286Z,9.40
2022-11-17T23:55:54.571Z,10.63
